Time;durP1;ratioP1;P1;durP2;ratioP2;P2;SDS_P1;SDS_P2;PMS_P1;PMS_P2;Temp;Humidity;BMP_temperature;BMP_pressure;BME280_temperature;BME280_humidity;BME280_pressure;Samples;Min_cycle;Max_cycle;Signal;HPM_P1;HPM_P2
2023/11/25 00:00:13;;;;;;;3.00;1.30;;;;;;;2.05;100.00;151893.69;4978375;28;20449;-86
2023/11/25 00:02:39;;;;;;;2.17;1.50;;;;;;;2.06;100.00;151896.28;4988141;28;20521;-85
2023/11/25 00:05:06;;;;;;;1.57;1.10;;;;;;;2.06;100.00;151896.28;4988162;28;20468;-85
2023/11/25 00:07:33;;;;;;;2.60;1.03;;;;;;;2.05;100.00;151893.69;4981873;28;20457;-85
2023/11/25 00:09:59;;;;;;;1.80;1.03;;;;;;;2.05;100.00;151893.69;4986121;28;20809;-85
2023/11/25 00:12:26;;;;;;;3.60;1.20;;;;;;;2.05;100.00;151893.69;4989287;28;20449;-85
2023/11/25 00:14:54;;;;;;;2.00;1.10;;;;;;;2.01;100.00;151883.44;4988534;28;20437;-85
2023/11/25 00:17:22;;;;;;;2.27;1.30;;;;;;;2.02;100.00;151885.97;4982608;28;20828;-85
2023/11/25 00:19:48;;;;;;;3.23;1.67;;;;;;;1.99;100.00;151878.25;4987744;28;20492;-85
2023/11/25 00:22:15;;;;;;;1.90;1.30;;;;;;;2.00;100.00;151880.84;4988843;28;20474;-85
2023/11/25 00:24:41;;;;;;;4.50;1.30;;;;;;;2.04;100.00;151889.84;4982609;28;20871;-85
2023/11/25 00:27:08;;;;;;;3.33;1.50;;;;;;;2.00;100.00;151880.84;4988079;28;20450;-85
2023/11/25 00:29:34;;;;;;;1.90;1.27;;;;;;;2.02;100.00;151885.97;4988178;28;21250;-85
2023/11/25 00:32:02;;;;;;;1.83;1.37;;;;;;;2.00;100.00;151879.56;4985750;28;20453;-85
2023/11/25 00:34:29;;;;;;;1.93;1.00;;;;;;;2.03;100.00;151888.56;4987965;28;20958;-85
2023/11/25 00:36:56;;;;;;;5.77;1.70;;;;;;;2.03;100.00;151888.56;4989914;28;20888;-85
2023/11/25 00:39:23;;;;;;;2.43;1.30;;;;;;;2.04;100.00;151891.09;4967839;28;20577;-86
2023/11/25 00:41:50;;;;;;;2.60;1.03;;;;;;;2.03;100.00;151888.56;4983124;28;20469;-85
2023/11/25 00:44:16;;;;;;;2.83;1.27;;;;;;;2.03;100.00;151888.56;4993875;28;20474;-85
2023/11/25 00:46:43;;;;;;;2.47;1.17;;;;;;;2.01;100.00;151882.13;4970701;28;20459;-85
2023/11/25 00:49:13;;;;;;;2.03;0.80;;;;;;;2.04;100.00;151891.09;4979431;28;20501;-85
2023/11/25 00:51:39;;;;;;;2.30;1.13;;;;;;;2.02;100.00;151885.97;4988704;28;20518;-85
2023/11/25 00:54:06;;;;;;;2.60;1.00;;;;;;;2.04;100.00;151889.84;4997802;28;20489;-85
2023/11/25 00:56:33;;;;;;;2.90;1.10;;;;;;;2.03;100.00;151888.56;4978007;28;20448;-85
2023/11/25 00:59:00;;;;;;;3.40;1.50;;;;;;;2.07;100.00;151897.53;4972222;28;20465;-85
2023/11/25 01:01:27;;;;;;;1.77;1.10;;;;;;;2.09;100.00;151903.94;4972205;28;20548;-85
2023/11/25 01:04:11;;;;;;;4.43;1.30;;;;;;;2.09;100.00;151902.72;4969543;28;20454;-85
2023/11/25 01:06:38;;;;;;;2.43;0.93;;;;;;;2.13;100.00;151914.25;4986647;28;20449;-85
2023/11/25 01:09:05;;;;;;;1.40;0.80;;;;;;;2.09;100.00;151903.94;4988637;28;21063;-85
2023/11/25 01:11:34;;;;;;;4.60;1.40;;;;;;;2.07;100.00;151898.81;4971954;28;20442;-85
2023/11/25 01:14:01;;;;;;;3.47;1.10;;;;;;;2.08;100.00;151901.41;4990192;28;20512;-85
2023/11/25 01:16:27;;;;;;;2.00;0.77;;;;;;;2.07;100.00;151897.53;4994138;28;20441;-86
2023/11/25 01:18:54;;;;;;;1.20;0.90;;;;;;;2.05;100.00;151892.41;4986785;28;20454;-85
2023/11/25 01:21:22;;;;;;;1.60;1.20;;;;;;;2.05;100.00;151892.41;4988842;28;20880;-86
2023/11/25 01:23:48;;;;;;;2.63;1.43;;;;;;;2.01;100.00;151882.13;4956199;28;20837;-85
2023/11/25 01:26:15;;;;;;;1.60;1.17;;;;;;;2.03;100.00;151888.56;4989645;28;20443;-86
2023/11/25 01:28:42;;;;;;;1.83;1.00;;;;;;;2.05;100.00;151893.69;4985287;28;20448;-86
2023/11/25 01:31:10;;;;;;;3.13;1.30;;;;;;;2.05;100.00;151893.69;4970616;28;20450;-86
2023/11/25 01:33:36;;;;;;;2.50;1.30;;;;;;;2.03;100.00;151888.56;4988143;28;20453;-86
2023/11/25 01:36:03;;;;;;;1.30;0.90;;;;;;;2.02;100.00;151885.97;4977487;28;20980;-86
2023/11/25 01:38:31;;;;;;;1.80;1.30;;;;;;;1.97;100.00;151873.13;4990354;28;20465;-86
2023/11/25 01:40:58;;;;;;;1.87;1.00;;;;;;;1.94;100.00;151865.41;4969247;28;20531;-86
2023/11/25 01:43:25;;;;;;;1.60;1.17;;;;;;;1.90;100.00;151855.16;4993117;28;20449;-86
2023/11/25 01:45:52;;;;;;;1.97;1.20;;;;;;;1.91;100.00;151857.69;4973786;28;20433;-86
2023/11/25 01:48:18;;;;;;;1.37;0.77;;;;;;;1.90;100.00;151855.16;4988907;28;20445;-86
2023/11/25 01:50:45;;;;;;;3.50;1.40;;;;;;;1.87;100.00;151847.41;4991587;28;20858;-86
2023/11/25 01:53:13;;;;;;;1.50;1.00;;;;;;;1.88;100.00;151849.97;4994043;28;20469;-86
2023/11/25 01:55:41;;;;;;;1.50;0.90;;;;;;;1.88;100.00;151848.72;4957130;28;20454;-86
2023/11/25 01:58:09;;;;;;;1.70;0.90;;;;;;;1.85;100.00;151842.28;4969390;28;20469;-85
2023/11/25 02:00:38;;;;;;;3.30;1.23;;;;;;;1.85;100.00;151842.28;4982056;28;20440;-85
2023/11/25 02:03:05;;;;;;;1.77;1.10;;;;;;;1.83;100.00;151837.13;4991668;28;20483;-86
2023/11/25 02:05:32;;;;;;;2.50;1.20;;;;;;;1.83;100.00;151838.41;4974507;28;21002;-85
2023/11/25 02:07:58;;;;;;;2.07;1.30;;;;;;;1.85;100.00;151842.28;4993574;28;21011;-86
2023/11/25 02:10:25;;;;;;;7.43;1.20;;;;;;;1.81;100.00;151833.28;4991277;28;20464;-85
2023/11/25 02:12:53;;;;;;;2.60;1.30;;;;;;;1.78;100.00;151824.25;4987634;28;20842;-86
2023/11/25 02:15:19;;;;;;;2.13;1.40;;;;;;;1.76;100.00;151820.44;4972849;28;20457;-85
2023/11/25 02:17:46;;;;;;;2.33;1.53;;;;;;;1.77;100.00;151822.97;4988469;28;20585;-85
2023/11/25 02:20:13;;;;;;;2.90;1.23;;;;;;;1.77;100.00;151821.72;4993415;28;20449;-85
2023/11/25 02:22:40;;;;;;;3.77;1.60;;;;;;;1.78;100.00;151824.25;4986883;28;20477;-85
2023/11/25 02:25:09;;;;;;;1.50;1.00;;;;;;;1.79;100.00;151828.16;4989507;28;20516;-85
2023/11/25 02:27:35;;;;;;;1.77;1.23;;;;;;;1.77;100.00;151821.72;4973071;28;20460;-84
2023/11/25 02:30:05;;;;;;;5.13;1.93;;;;;;;1.74;100.00;151814.00;4987058;28;20457;-85
2023/11/25 02:32:34;;;;;;;2.23;1.37;;;;;;;1.75;100.00;151816.56;4971338;28;20452;-85
2023/11/25 02:35:01;;;;;;;1.80;1.23;;;;;;;1.76;100.00;151819.13;4986437;28;20548;-85
2023/11/25 02:37:27;;;;;;;2.07;1.47;;;;;;;1.75;100.00;151816.56;4984922;28;20448;-85
2023/11/25 02:39:54;;;;;;;2.77;1.20;;;;;;;1.71;100.00;151806.28;4987972;28;20846;-85
2023/11/25 02:42:21;;;;;;;2.13;1.30;;;;;;;1.64;100.00;151788.31;4972549;28;20481;-85
2023/11/25 02:44:48;;;;;;;1.70;1.40;;;;;;;1.60;100.00;151778.00;4990015;28;20537;-85
2023/11/25 02:47:14;;;;;;;4.33;1.40;;;;;;;1.56;100.00;151769.00;4956193;28;20839;-85
2023/11/25 02:49:41;;;;;;;1.70;1.03;;;;;;;1.58;100.00;151774.19;4977711;28;20474;-85
2023/11/25 02:52:08;;;;;;;1.70;1.40;;;;;;;1.56;100.00;151767.75;4973250;28;20450;-85
2023/11/25 02:54:34;;;;;;;4.60;1.50;;;;;;;1.54;100.00;151763.88;4988430;28;20477;-85
2023/11/25 02:57:01;;;;;;;3.40;1.80;;;;;;;1.57;100.00;151770.28;4972718;28;20450;-85
2023/11/25 02:59:29;;;;;;;2.13;1.67;;;;;;;1.53;100.00;151761.34;4989836;28;20544;-85
2023/11/25 03:01:58;;;;;;;3.47;1.40;;;;;;;1.54;100.00;151762.56;4987882;28;20468;-85
2023/11/25 03:04:26;;;;;;;2.57;1.67;;;;;;;1.53;100.00;151760.03;4990195;28;20456;-84
2023/11/25 03:06:53;;;;;;;3.23;2.10;;;;;;;1.54;100.00;151763.88;4987560;28;20460;-84
2023/11/25 03:09:20;;;;;;;3.10;1.77;;;;;;;1.52;100.00;151757.44;4991702;28;20785;-84
2023/11/25 03:11:47;;;;;;;2.57;1.20;;;;;;;1.49;100.00;151749.72;4988747;28;20458;-84
2023/11/25 03:14:15;;;;;;;3.30;1.77;;;;;;;1.49;100.00;151749.72;4973590;28;20987;-84
2023/11/25 03:16:44;;;;;;;4.70;1.40;;;;;;;1.48;100.00;151748.50;4986794;28;20465;-83
2023/11/25 03:19:13;;;;;;;3.27;1.97;;;;;;;1.50;100.00;151753.63;4977974;28;20543;-84
2023/11/25 03:21:42;;;;;;;2.60;1.53;;;;;;;1.50;100.00;151752.31;4965862;28;21051;-83
2023/11/25 03:24:09;;;;;;;3.27;1.50;;;;;;;1.51;100.00;151754.91;4991768;28;20466;-83
2023/11/25 03:26:36;;;;;;;4.50;2.07;;;;;;;1.51;100.00;151756.16;4983887;28;20798;-83
2023/11/25 03:29:03;;;;;;;3.83;2.00;;;;;;;1.52;100.00;151757.44;4980279;28;20458;-83
2023/11/25 03:31:29;;;;;;;4.23;2.20;;;;;;;1.55;100.00;151765.16;4988975;28;20807;-83
2023/11/25 03:33:57;;;;;;;4.57;1.80;;;;;;;1.55;100.00;151765.16;4973403;28;20504;-84
2023/11/25 03:36:24;;;;;;;3.27;1.63;;;;;;;1.55;100.00;151765.16;4990321;28;20515;-83
2023/11/25 03:38:51;;;;;;;5.20;1.93;;;;;;;1.54;100.00;151762.56;4992462;28;20465;-84
2023/11/25 03:41:17;;;;;;;2.87;2.00;;;;;;;1.57;100.00;151770.28;4984382;28;20477;-83
2023/11/25 03:43:44;;;;;;;3.23;1.90;;;;;;;1.57;100.00;151770.28;5000282;28;20482;-84
2023/11/25 03:46:11;;;;;;;2.03;1.67;;;;;;;1.55;100.00;151765.16;4983097;28;20463;-82
2023/11/25 03:48:37;;;;;;;4.93;2.03;;;;;;;1.55;100.00;151766.47;4987791;28;20445;-84
2023/11/25 03:51:05;;;;;;;2.60;1.93;;;;;;;1.53;100.00;151760.03;4971883;28;20445;-84
2023/11/25 03:53:32;;;;;;;3.37;2.20;;;;;;;1.54;100.00;151762.56;4989835;28;20481;-84
2023/11/25 03:55:59;;;;;;;3.07;2.37;;;;;;;1.52;100.00;151757.44;4986579;28;21011;-83
2023/11/25 03:58:26;;;;;;;3.40;2.20;;;;;;;1.52;100.00;151757.44;4993405;28;20928;-83
2023/11/25 04:00:52;;;;;;;2.33;1.70;;;;;;;1.53;100.00;151760.03;4994246;28;20442;-84
2023/11/25 04:03:19;;;;;;;3.87;2.13;;;;;;;1.52;100.00;151758.75;4992239;28;20566;-84
2023/11/25 04:05:46;;;;;;;4.23;2.10;;;;;;;1.52;100.00;151757.44;4970605;28;21020;-84
2023/11/25 04:08:14;;;;;;;4.00;2.37;;;;;;;1.54;100.00;151763.88;4990356;28;20508;-84
2023/11/25 04:10:42;;;;;;;3.00;2.03;;;;;;;1.53;100.00;151760.03;4989696;28;20890;-84
2023/11/25 04:13:09;;;;;;;3.70;1.73;;;;;;;1.53;100.00;151760.03;4989443;28;20500;-83
2023/11/25 04:15:36;;;;;;;2.57;1.60;;;;;;;1.51;100.00;151754.91;4986930;28;20524;-83
2023/11/25 04:18:02;;;;;;;4.20;2.30;;;;;;;1.49;100.00;151751.03;5001474;28;20453;-84
2023/11/25 04:20:29;;;;;;;3.70;1.70;;;;;;;1.46;100.00;151742.00;4986795;28;20812;-84
2023/11/25 04:22:58;;;;;;;3.03;1.73;;;;;;;1.41;100.00;151730.47;4985544;28;20485;-83
2023/11/25 04:25:26;;;;;;;2.20;1.40;;;;;;;1.43;100.00;151735.59;4981566;28;20837;-83
2023/11/25 04:27:52;;;;;;;6.17;2.30;;;;;;;1.40;100.00;151727.94;4989885;28;20469;-83
2023/11/25 04:30:19;;;;;;;4.80;1.80;;;;;;;1.41;100.00;151729.16;4997884;28;20464;-83
2023/11/25 04:32:47;;;;;;;2.80;1.83;;;;;;;1.40;100.00;151727.94;4988818;28;20442;-83
2023/11/25 04:35:14;;;;;;;2.97;2.00;;;;;;;1.41;100.00;151730.47;4992019;28;20436;-83
2023/11/25 04:37:43;;;;;;;5.40;1.63;;;;;;;1.41;100.00;151729.16;4984891;28;20454;-84
2023/11/25 04:40:11;;;;;;;2.30;1.40;;;;;;;1.42;100.00;151731.75;4996364;28;21004;-83
2023/11/25 04:42:39;;;;;;;2.83;1.80;;;;;;;1.44;100.00;151738.19;4986142;28;20507;-83
2023/11/25 04:45:14;;;;;;;2.70;1.60;;;;;;;1.39;100.00;151725.34;4982698;28;20457;-83
2023/11/25 04:47:41;;;;;;;4.73;1.80;;;;;;;1.39;100.00;151725.34;4989689;28;20460;-83
2023/11/25 04:50:09;;;;;;;2.03;1.47;;;;;;;1.35;100.00;151715.03;4984951;28;20458;-83
2023/11/25 04:52:35;;;;;;;2.17;1.53;;;;;;;1.34;100.00;151712.50;4996701;28;21356;-83
2023/11/25 04:55:03;;;;;;;1.93;1.40;;;;;;;1.33;100.00;151708.63;4993077;28;20493;-83
2023/11/25 04:57:29;;;;;;;2.40;1.40;;;;;;;1.31;100.00;151703.50;4988483;28;20977;-83
2023/11/25 04:59:57;;;;;;;3.00;1.73;;;;;;;1.28;100.00;151695.78;5007959;28;20535;-83
2023/11/25 05:02:24;;;;;;;2.00;1.60;;;;;;;1.21;100.00;151680.41;4987787;28;20481;-83
2023/11/25 05:04:52;;;;;;;3.77;1.50;;;;;;;1.18;100.00;151672.69;4986315;28;20897;-84
2023/11/25 05:07:18;;;;;;;7.10;1.97;;;;;;;1.17;100.00;151668.78;4982902;28;20797;-83
2023/11/25 05:09:46;;;;;;;1.97;1.23;;;;;;;1.17;100.00;151670.09;4977942;28;21022;-84
2023/11/25 05:12:14;;;;;;;2.70;1.63;;;;;;;1.14;100.00;151662.38;4974874;28;20545;-83
2023/11/25 05:14:41;;;;;;;2.53;1.50;;;;;;;1.14;100.00;151661.09;4985184;28;20820;-82
2023/11/25 05:17:12;;;;;;;3.87;1.60;;;;;;;1.15;100.00;151664.97;4987586;28;21063;-82
2023/11/25 05:19:38;;;;;;;2.50;1.40;;;;;;;1.13;100.00;151658.53;4979837;28;20464;-82
2023/11/25 05:22:05;;;;;;;3.57;1.40;;;;;;;1.11;100.00;151653.41;4975718;28;20462;-82
2023/11/25 05:24:31;;;;;;;6.73;1.40;;;;;;;1.08;100.00;151647.00;4984711;28;21061;-82
2023/11/25 05:26:58;;;;;;;6.43;1.80;;;;;;;1.06;100.00;151640.56;4997586;28;20463;-82
2023/11/25 05:29:27;;;;;;;2.87;1.50;;;;;;;1.02;100.00;151630.28;4982401;28;20450;-82
2023/11/25 05:31:54;;;;;;;3.00;1.47;;;;;;;1.03;100.00;151634.09;5000360;28;20457;-82
2023/11/25 05:34:22;;;;;;;1.40;1.10;;;;;;;0.99;100.00;151623.84;4991320;28;20454;-82
2023/11/25 05:36:48;;;;;;;3.23;1.40;;;;;;;0.93;100.00;151608.44;4996331;28;20469;-82
2023/11/25 05:39:20;;;;;;;4.37;1.60;;;;;;;0.93;100.00;151608.44;5000227;28;20457;-83
2023/11/25 05:41:47;;;;;;;2.93;1.40;;;;;;;0.88;100.00;151595.59;5002341;28;21130;-82
2023/11/25 05:44:13;;;;;;;2.20;1.30;;;;;;;0.92;100.00;151605.91;4996374;28;20488;-82
2023/11/25 05:46:40;;;;;;;4.37;1.77;;;;;;;0.85;100.00;151587.88;4980119;28;20974;-83
2023/11/25 05:49:08;;;;;;;3.70;1.70;;;;;;;0.83;100.00;151582.75;4989517;28;20469;-82
2023/11/25 05:51:42;;;;;;;2.30;1.57;;;;;;;0.84;100.00;151584.06;4979461;28;20449;-83
2023/11/25 05:54:12;;;;;;;2.23;1.33;;;;;;;0.81;100.00;151577.63;4982163;28;20525;-82
2023/11/25 05:56:39;;;;;;;3.63;1.50;;;;;;;0.82;100.00;151580.16;4976536;28;20545;-82
2023/11/25 05:59:07;;;;;;;3.37;1.60;;;;;;;0.81;100.00;151577.63;4961487;28;20502;-82
2023/11/25 06:01:34;;;;;;;2.30;1.40;;;;;;;0.79;100.00;151571.22;4966983;28;20479;-82
2023/11/25 06:04:01;;;;;;;2.20;1.57;;;;;;;0.75;100.00;151562.22;4987272;28;20493;-82
2023/11/25 06:06:30;;;;;;;3.00;1.63;;;;;;;0.72;100.00;151553.22;4987014;28;20450;-82
2023/11/25 06:08:58;;;;;;;3.73;2.17;;;;;;;0.72;100.00;151554.50;4976614;28;20457;-83
2023/11/25 06:11:27;;;;;;;2.70;1.60;;;;;;;0.72;100.00;151554.50;4970543;28;20488;-83
2023/11/25 06:13:54;;;;;;;2.30;1.33;;;;;;;0.70;100.00;151548.09;4977596;28;20520;-83
2023/11/25 06:16:21;;;;;;;2.60;1.30;;;;;;;0.73;100.00;151557.09;4968365;28;20972;-83
2023/11/25 06:18:48;;;;;;;2.40;1.43;;;;;;;0.69;100.00;151546.78;4973979;28;20465;-83
2023/11/25 06:21:14;;;;;;;2.37;1.20;;;;;;;0.69;100.00;151545.53;4977592;28;20537;-83
2023/11/25 06:23:42;;;;;;;2.90;1.40;;;;;;;0.70;100.00;151549.38;4978088;28;20486;-83
2023/11/25 06:26:10;;;;;;;1.93;1.20;;;;;;;0.69;100.00;151545.53;4976808;28;20537;-83
2023/11/25 06:28:41;;;;;;;4.87;1.53;;;;;;;0.69;100.00;151546.78;4975641;28;20461;-83
2023/11/25 06:31:08;;;;;;;2.63;1.20;;;;;;;0.70;100.00;151549.38;4992889;28;20486;-83
2023/11/25 06:33:35;;;;;;;3.20;1.23;;;;;;;0.74;100.00;151559.66;4977007;28;20465;-83
2023/11/25 06:36:04;;;;;;;1.80;0.97;;;;;;;0.75;100.00;151560.91;4974765;28;20490;-83
2023/11/25 06:38:30;;;;;;;2.40;1.60;;;;;;;0.76;100.00;151564.81;4975806;28;20460;-84
2023/11/25 06:40:57;;;;;;;2.67;1.50;;;;;;;0.78;100.00;151569.91;4974712;28;20462;-84
2023/11/25 06:43:25;;;;;;;1.63;0.90;;;;;;;0.80;100.00;151575.03;4972777;28;20789;-83
2023/11/25 06:45:53;;;;;;;1.70;1.10;;;;;;;0.81;100.00;151577.63;4993845;28;21322;-83
2023/11/25 06:48:20;;;;;;;1.80;1.30;;;;;;;0.81;100.00;151577.63;4989853;28;21048;-83
2023/11/25 06:50:47;;;;;;;2.50;1.80;;;;;;;0.83;100.00;151581.47;4963419;28;20561;-84
2023/11/25 06:53:14;;;;;;;2.13;1.30;;;;;;;0.84;100.00;151585.34;4980147;28;20490;-84
2023/11/25 06:55:41;;;;;;;3.93;1.40;;;;;;;0.85;100.00;151587.88;4999787;28;20503;-84
2023/11/25 06:58:08;;;;;;;3.10;1.80;;;;;;;0.86;100.00;151589.19;5004526;28;20528;-83
2023/11/25 07:00:37;;;;;;;3.80;1.53;;;;;;;0.89;100.00;151598.19;5005052;28;20567;-83
2023/11/25 07:03:03;;;;;;;2.30;1.67;;;;;;;0.93;100.00;151608.44;4994028;28;20466;-83
2023/11/25 07:05:30;;;;;;;3.00;1.90;;;;;;;0.95;100.00;151613.59;4989135;28;20458;-84
2023/11/25 07:07:56;;;;;;;3.07;1.60;;;;;;;0.98;100.00;151621.28;4994608;28;20545;-84
2023/11/25 07:10:23;;;;;;;4.00;1.90;;;;;;;0.97;100.00;151618.72;4997085;28;20468;-83
2023/11/25 07:12:50;;;;;;;2.30;1.67;;;;;;;0.96;100.00;151616.16;4997336;28;20484;-83
2023/11/25 07:15:17;;;;;;;2.00;1.53;;;;;;;0.97;100.00;151617.44;4967368;28;20449;-84
2023/11/25 07:17:45;;;;;;;4.17;1.80;;;;;;;0.98;100.00;151621.28;5002527;28;20463;-84
2023/11/25 07:20:12;;;;;;;2.13;1.50;;;;;;;0.97;100.00;151618.72;4996122;28;20483;-84
2023/11/25 07:22:39;;;;;;;2.77;1.27;;;;;;;0.99;100.00;151623.84;4993223;28;20488;-84
2023/11/25 07:25:11;;;;;;;3.20;1.30;;;;;;;0.98;100.00;151621.28;5000130;28;20971;-83
2023/11/25 07:27:38;;;;;;;1.97;1.27;;;;;;;0.99;100.00;151622.56;4991140;28;20457;-83
2023/11/25 07:30:06;;;;;;;5.10;1.80;;;;;;;1.01;100.00;151628.97;4992617;28;20563;-83
2023/11/25 07:32:33;;;;;;;4.20;1.60;;;;;;;1.01;100.00;151628.97;4995529;28;20454;-83
2023/11/25 07:35:00;;;;;;;2.80;1.73;;;;;;;1.04;100.00;151636.69;4998502;28;20959;-83
2023/11/25 07:37:27;;;;;;;2.37;1.50;;;;;;;1.04;100.00;151636.69;4993212;28;20457;-85
2023/11/25 07:39:54;;;;;;;7.30;1.93;;;;;;;1.07;100.00;151643.13;4995452;28;20794;-84
2023/11/25 07:42:20;;;;;;;3.13;1.43;;;;;;;1.08;100.00;151647.00;4997659;28;20449;-85
2023/11/25 07:44:48;;;;;;;2.40;1.47;;;;;;;1.09;100.00;151649.53;4995408;28;20474;-84
2023/11/25 07:47:15;;;;;;;4.87;1.50;;;;;;;1.09;100.00;151649.53;4984600;28;20536;-84
2023/11/25 07:49:43;;;;;;;5.10;2.30;;;;;;;1.12;100.00;151657.25;4993557;28;20515;-84
2023/11/25 07:52:11;;;;;;;3.10;1.57;;;;;;;1.13;100.00;151659.84;4994439;28;20887;-84
2023/11/25 07:54:37;;;;;;;2.10;1.30;;;;;;;1.14;100.00;151661.09;4991477;28;20565;-83
2023/11/25 07:57:05;;;;;;;3.97;2.73;;;;;;;1.16;100.00;151667.56;4993120;28;20987;-83
2023/11/25 07:59:31;;;;;;;3.50;1.60;;;;;;;1.20;100.00;151677.81;4992383;28;20973;-84
2023/11/25 08:01:58;;;;;;;4.60;2.23;;;;;;;1.21;100.00;151680.41;4988610;28;20463;-83
2023/11/25 08:04:24;;;;;;;3.20;1.80;;;;;;;1.22;100.00;151681.63;4994321;28;20560;-83
2023/11/25 08:06:51;;;;;;;2.33;1.20;;;;;;;1.26;100.00;151691.94;4996132;28;20464;-83
2023/11/25 08:09:19;;;;;;;2.93;1.80;;;;;;;1.27;100.00;151693.22;4994269;28;20942;-83
2023/11/25 08:11:45;;;;;;;1.83;1.27;;;;;;;1.28;100.00;151695.78;4993306;28;20457;-83
2023/11/25 08:14:13;;;;;;;2.17;1.47;;;;;;;1.32;100.00;151706.06;4991665;28;20556;-82
2023/11/25 08:16:40;;;;;;;2.10;1.67;;;;;;;1.34;100.00;151711.19;4967381;28;20453;-82
2023/11/25 08:19:06;;;;;;;2.87;1.70;;;;;;;1.36;100.00;151716.31;4977503;28;20465;-82
2023/11/25 08:21:33;;;;;;;2.20;1.43;;;;;;;1.36;100.00;151717.63;4993230;28;20869;-82
2023/11/25 08:24:00;;;;;;;2.70;1.23;;;;;;;1.40;100.00;151726.63;4995659;28;20795;-82
2023/11/25 08:26:28;;;;;;;2.50;1.30;;;;;;;1.41;100.00;151729.16;4994529;28;20460;-81
2023/11/25 08:28:55;;;;;;;6.73;1.70;;;;;;;1.42;100.00;151733.06;4991732;28;20530;-81
2023/11/25 08:31:23;;;;;;;3.90;1.63;;;;;;;1.46;100.00;151742.00;4994484;28;20465;-82
2023/11/25 08:33:49;;;;;;;2.20;1.50;;;;;;;1.47;100.00;151744.59;4995297;28;20489;-81
2023/11/25 08:36:17;;;;;;;2.00;1.60;;;;;;;1.48;100.00;151747.19;4992241;28;20449;-81
2023/11/25 08:38:44;;;;;;;2.97;1.43;;;;;;;1.47;100.00;151745.91;4988266;28;20542;-81
2023/11/25 08:41:11;;;;;;;2.97;1.60;;;;;;;1.50;100.00;151752.31;4982574;28;20547;-81
2023/11/25 08:43:40;;;;;;;2.13;1.20;;;;;;;1.49;100.00;151751.03;4998938;28;20999;-82
2023/11/25 08:46:07;;;;;;;3.30;1.70;;;;;;;1.53;100.00;151760.03;4998873;28;20548;-81
2023/11/25 08:48:34;;;;;;;3.90;1.70;;;;;;;1.57;100.00;151770.28;4993343;28;20543;-81
2023/11/25 08:51:02;;;;;;;2.67;1.23;;;;;;;1.64;100.00;151789.56;4996034;28;20528;-80
2023/11/25 08:53:31;;;;;;;3.30;1.63;;;;;;;1.71;100.00;151806.28;4994442;28;20840;-80
2023/11/25 08:55:59;;;;;;;1.73;1.10;;;;;;;1.76;100.00;151819.13;4993833;28;20465;-81
2023/11/25 08:58:26;;;;;;;1.73;1.23;;;;;;;1.84;100.00;151839.72;4995030;28;20586;-82
2023/11/25 09:00:55;;;;;;;2.23;1.20;;;;;;;1.91;100.00;151857.69;4997554;28;20459;-82
2023/11/25 09:03:22;;;;;;;2.27;1.17;;;;;;;1.97;100.00;151873.13;4998107;28;20550;-82
2023/11/25 09:05:49;;;;;;;4.33;1.43;;;;;;;2.04;100.00;151891.09;4988837;28;20449;-81
2023/11/25 09:08:16;;;;;;;2.90;1.20;;;;;;;2.11;100.00;151909.13;4982950;28;20457;-81
2023/11/25 09:10:43;;;;;;;3.70;1.60;;;;;;;2.14;100.00;151916.84;4997477;28;20827;-81
2023/11/25 09:13:10;;;;;;;3.40;1.47;;;;;;;2.17;100.00;151924.53;4996703;28;20456;-81
2023/11/25 09:15:37;;;;;;;6.70;1.40;;;;;;;2.21;100.00;151933.53;4983605;28;20454;-81
2023/11/25 09:18:06;;;;;;;1.80;1.20;;;;;;;2.22;100.00;151936.13;4993470;28;21016;-82
2023/11/25 09:20:33;;;;;;;1.47;0.90;;;;;;;2.23;100.00;151939.97;4985907;28;20568;-82
2023/11/25 09:23:00;;;;;;;1.50;1.37;;;;;;;2.22;100.00;151936.13;4991832;28;20459;-81
2023/11/25 09:25:29;;;;;;;2.63;1.43;;;;;;;2.27;100.00;151948.97;4994461;28;20520;-82
2023/11/25 09:27:55;;;;;;;2.97;1.40;;;;;;;2.32;100.00;151961.84;4991795;28;20449;-82
2023/11/25 09:30:23;;;;;;;4.37;1.40;;;;;;;2.35;100.00;151969.56;4993737;28;20855;-82
2023/11/25 09:32:49;;;;;;;5.00;1.50;;;;;;;2.38;100.00;151978.53;4993937;28;20464;-82
2023/11/25 09:35:17;;;;;;;3.40;2.30;;;;;;;2.43;100.00;151991.44;4993613;28;20442;-82
2023/11/25 09:37:44;;;;;;;4.90;2.10;;;;;;;2.50;100.00;152008.13;4989635;28;20805;-82
2023/11/25 09:40:14;;;;;;;2.43;2.00;;;;;;;2.53;100.00;152014.56;4995089;28;20966;-82
2023/11/25 09:42:41;;;;;;;4.17;1.73;;;;;;;2.55;100.00;152020.97;4996021;28;20847;-82
2023/11/25 09:45:09;;;;;;;3.73;1.83;;;;;;;2.58;100.00;152028.72;4992589;28;20472;-83
2023/11/25 09:47:36;;;;;;;4.77;2.60;;;;;;;2.57;100.00;152024.88;4993692;28;20781;-83
2023/11/25 09:50:02;;;;;;;5.93;1.90;;;;;;;2.56;100.00;152023.56;4996049;28;20460;-83
2023/11/25 09:52:32;;;;;;;5.83;2.10;;;;;;;2.56;100.00;152022.28;4995128;28;20458;-83
2023/11/25 09:55:00;;;;;;;4.10;1.90;;;;;;;2.58;100.00;152028.72;4989691;28;20947;-81
2023/11/25 09:57:32;;;;;;;3.83;2.20;;;;;;;2.57;100.00;152024.88;4995547;28;20820;-84
2023/11/25 09:59:59;;;;;;;4.10;2.20;;;;;;;2.61;100.00;152035.13;4996620;28;20806;-83
2023/11/25 10:02:26;;;;;;;5.23;2.20;;;;;;;2.62;100.00;152038.97;4994383;28;20940;-84
2023/11/25 10:04:54;;;;;;;3.77;1.93;;;;;;;2.64;100.00;152042.84;4996914;28;20507;-84
2023/11/25 10:07:24;;;;;;;4.67;1.70;;;;;;;2.68;100.00;152054.41;5002440;28;20460;-83
2023/11/25 10:09:52;;;;;;;5.30;1.90;;;;;;;2.72;100.00;152063.44;4995186;28;20817;-82
2023/11/25 10:12:18;;;;;;;3.80;1.97;;;;;;;2.75;100.00;152071.16;4996246;28;20902;-83
2023/11/25 10:14:46;;;;;;;5.17;2.00;;;;;;;2.76;100.00;152073.72;4995385;28;20464;-83
2023/11/25 10:17:19;;;;;;;3.47;2.13;;;;;;;2.80;100.00;152085.31;4997639;28;20456;-83
2023/11/25 10:19:46;;;;;;;4.27;1.50;;;;;;;2.85;100.00;152096.88;4994640;28;20464;-83
2023/11/25 10:22:16;;;;;;;4.53;2.33;;;;;;;2.92;100.00;152114.88;4994719;28;20928;-84
2023/11/25 10:24:49;;;;;;;3.17;1.97;;;;;;;2.97;100.00;152127.75;4997769;28;20741;-84
2023/11/25 10:27:17;;;;;;;4.70;2.10;;;;;;;3.03;100.00;152143.19;4998063;28;20530;-84
2023/11/25 10:29:44;;;;;;;6.87;2.93;;;;;;;3.10;100.00;152159.94;4997021;28;20993;-85
2023/11/25 10:32:11;;;;;;;6.63;2.70;;;;;;;3.14;100.00;152171.50;4989281;28;20462;-84
2023/11/25 10:34:37;;;;;;;3.27;2.30;;;;;;;3.20;100.00;152185.66;4996137;28;20449;-84
2023/11/25 10:37:05;;;;;;;4.67;2.70;;;;;;;3.23;100.00;152194.63;4994001;28;20461;-85
2023/11/25 10:39:35;;;;;;;5.20;2.20;;;;;;;3.22;100.00;152192.09;4999843;28;20559;-84
2023/11/25 10:42:03;;;;;;;6.13;2.37;;;;;;;3.22;100.00;152190.81;4996943;28;20449;-84
2023/11/25 10:44:31;;;;;;;5.50;2.53;;;;;;;3.22;100.00;152192.09;5001927;28;20484;-84
2023/11/25 10:46:58;;;;;;;2.70;1.60;;;;;;;3.23;100.00;152194.63;4981984;28;20832;-84
2023/11/25 10:49:25;;;;;;;7.00;2.20;;;;;;;3.24;100.00;152197.22;4984902;28;20461;-76
2023/11/25 10:51:53;;;;;;;3.70;1.90;;;;;;;3.28;100.00;152207.56;4997042;28;20452;-76
2023/11/25 10:54:26;;;;;;;2.87;1.90;;;;;;;3.32;100.00;152217.81;4998025;28;20481;-76
2023/11/25 10:56:53;;;;;;;6.03;2.10;;;;;;;3.36;100.00;152228.09;4990199;28;20457;-77
2023/11/25 10:59:21;;;;;;;3.27;1.50;;;;;;;3.38;100.00;152233.28;4997355;28;20489;-76
2023/11/25 11:01:51;;;;;;;6.23;2.13;;;;;;;3.39;100.00;152235.81;4996761;28;20457;-76
2023/11/25 11:04:21;;;;;;;6.20;2.53;;;;;;;3.39;100.00;152235.81;4991531;28;20575;-76
2023/11/25 11:06:49;;;;;;;6.83;2.30;;;;;;;3.45;100.00;152250.00;4994374;28;20447;-76
2023/11/25 11:09:19;;;;;;;4.57;2.10;;;;;;;3.48;100.00;152257.72;4996506;28;20453;-76
2023/11/25 11:11:51;;;;;;;5.60;2.50;;;;;;;3.50;100.00;152264.16;4994170;28;20456;-76
2023/11/25 11:14:20;;;;;;;6.53;2.50;;;;;;;3.55;100.00;152277.03;4993890;28;20516;-76
2023/11/25 11:16:56;;;;;;;4.43;2.00;;;;;;;3.58;100.00;152283.47;4993993;28;21011;-77
2023/11/25 11:19:28;;;;;;;4.67;2.10;;;;;;;3.64;100.00;152298.91;4991273;28;20468;-76
2023/11/25 11:22:00;;;;;;;2.67;1.87;;;;;;;3.65;100.00;152301.50;4966047;28;20465;-76
2023/11/25 11:24:31;;;;;;;5.77;2.20;;;;;;;3.67;100.00;152307.94;4993189;28;20530;-76